Time;durP1;ratioP1;P1;durP2;ratioP2;P2;SDS_P1;SDS_P2;PMS_P1;PMS_P2;Temp;Humidity;BMP_temperature;BMP_pressure;BME280_temperature;BME280_humidity;BME280_pressure;Samples;Min_cycle;Max_cycle;Signal;HPM_P1;HPM_P2
2023/11/03 00:01:59;;;;;;;27.42;19.25;;;;;;;;;;5032087;28;20454;-61
2023/11/03 00:04:25;;;;;;;32.53;21.67;;;;;;;;;;5030511;28;20057;-60
2023/11/03 00:06:53;;;;;;;36.67;21.80;;;;;;;;;;5031940;28;20041;-60
2023/11/03 00:09:23;;;;;;;36.53;23.08;;;;;;;;;;5035474;28;20105;-61
2023/11/03 00:11:49;;;;;;;38.10;22.77;;;;;;;;;;5036006;28;20044;-60
2023/11/03 00:14:16;;;;;;;36.63;23.15;;;;;;;;;;5024505;28;20033;-61
2023/11/03 00:16:45;;;;;;;44.65;24.70;;;;;;;;;;5030484;28;20033;-60
2023/11/03 00:19:13;;;;;;;42.70;26.05;;;;;;;;;;5033020;28;20347;-61
2023/11/03 00:21:39;;;;;;;44.03;26.40;;;;;;;;;;5020673;28;20037;-61
2023/11/03 00:24:06;;;;;;;46.33;27.15;;;;;;;;;;5025193;28;20039;-61
2023/11/03 00:26:33;;;;;;;43.63;26.25;;;;;;;;;;5031291;28;20056;-60
2023/11/03 00:28:59;;;;;;;42.90;26.13;;;;;;;;;;5023733;28;20079;-60
2023/11/03 00:31:25;;;;;;;42.83;26.52;;;;;;;;;;5029730;28;20030;-60
2023/11/03 00:33:51;;;;;;;42.58;26.08;;;;;;;;;;5018353;28;20037;-61
2023/11/03 00:36:18;;;;;;;44.72;26.50;;;;;;;;;;5030798;28;20094;-60
2023/11/03 00:38:45;;;;;;;49.47;28.90;;;;;;;;;;5060193;28;20064;-60
2023/11/03 00:41:14;;;;;;;37.15;25.55;;;;;;;;;;5032006;28;20040;-60
2023/11/03 00:43:41;;;;;;;43.45;26.95;;;;;;;;;;5027340;28;20037;-60
2023/11/03 00:46:07;;;;;;;42.92;28.13;;;;;;;;;;5030910;28;20356;-60
2023/11/03 00:48:33;;;;;;;45.97;27.00;;;;;;;;;;5019692;28;20121;-60
2023/11/03 00:50:59;;;;;;;37.40;25.33;;;;;;;;;;5031941;28;20029;-60
2023/11/03 00:53:26;;;;;;;38.70;26.48;;;;;;;;;;5024156;28;20099;-60
2023/11/03 00:55:52;;;;;;;38.83;26.67;;;;;;;;;;5027745;28;20065;-60
2023/11/03 00:58:19;;;;;;;35.35;25.48;;;;;;;;;;5016079;28;20021;-60
2023/11/03 01:00:46;;;;;;;38.95;26.23;;;;;;;;;;5029092;28;20130;-61
2023/11/03 01:03:14;;;;;;;46.33;29.63;;;;;;;;;;5026715;28;20033;-60
2023/11/03 01:05:40;;;;;;;42.65;29.25;;;;;;;;;;5031776;28;20026;-60
2023/11/03 01:08:06;;;;;;;52.65;32.38;;;;;;;;;;5024825;28;20034;-60
2023/11/03 01:10:32;;;;;;;48.22;31.77;;;;;;;;;;5030959;28;20040;-60
2023/11/03 01:12:59;;;;;;;51.55;31.75;;;;;;;;;;5030837;28;20037;-60
2023/11/03 01:15:25;;;;;;;54.70;32.08;;;;;;;;;;5024448;28;20026;-60
2023/11/03 01:17:51;;;;;;;49.70;31.88;;;;;;;;;;5024041;28;20104;-60
2023/11/03 01:20:26;;;;;;;57.30;33.65;;;;;;;;;;5023225;28;20041;-60
2023/11/03 01:22:52;;;;;;;42.65;29.17;;;;;;;;;;5028519;28;20046;-60
2023/11/03 01:25:18;;;;;;;43.60;30.17;;;;;;;;;;5028600;28;20493;-60
2023/11/03 01:27:45;;;;;;;53.47;32.83;;;;;;;;;;5027420;28;20065;-60
2023/11/03 01:30:12;;;;;;;50.83;32.10;;;;;;;;;;5031322;28;20033;-60
2023/11/03 01:32:38;;;;;;;54.58;32.88;;;;;;;;;;5030019;28;20030;-60
2023/11/03 01:35:06;;;;;;;50.47;31.58;;;;;;;;;;5026360;28;20130;-60
2023/11/03 01:37:32;;;;;;;51.03;31.30;;;;;;;;;;5056170;28;20116;-60
2023/11/03 01:39:58;;;;;;;53.75;31.98;;;;;;;;;;5015015;28;20092;-60
2023/11/03 01:42:25;;;;;;;53.25;32.13;;;;;;;;;;5018622;28;20066;-60
2023/11/03 01:44:51;;;;;;;53.72;32.47;;;;;;;;;;5020500;28;20095;-60
2023/11/03 01:47:17;;;;;;;58.15;34.00;;;;;;;;;;5029206;28;20028;-61
2023/11/03 01:49:44;;;;;;;59.28;35.47;;;;;;;;;;5021334;28;20034;-60
2023/11/03 01:52:10;;;;;;;59.70;33.63;;;;;;;;;;5026764;28;20052;-60
2023/11/03 01:54:37;;;;;;;60.03;33.08;;;;;;;;;;5024891;28;20033;-60
2023/11/03 01:57:03;;;;;;;56.70;32.22;;;;;;;;;;5032180;28;20061;-60
2023/11/03 01:59:29;;;;;;;54.70;32.60;;;;;;;;;;5022948;28;20527;-60
2023/11/03 02:01:56;;;;;;;91.07;42.17;;;;;;;;;;5031978;28;20033;-60
2023/11/03 02:04:23;;;;;;;63.10;35.03;;;;;;;;;;5031438;28;20113;-61
2023/11/03 02:06:49;;;;;;;61.88;34.58;;;;;;;;;;5031744;28;20104;-60
2023/11/03 02:09:16;;;;;;;59.38;35.38;;;;;;;;;;5031740;28;20060;-60
2023/11/03 02:11:47;;;;;;;69.90;34.45;;;;;;;;;;5030790;28;20029;-60
2023/11/03 02:14:14;;;;;;;60.05;33.78;;;;;;;;;;5028167;28;20042;-60
2023/11/03 02:16:40;;;;;;;52.70;30.20;;;;;;;;;;5024036;28;20041;-60
2023/11/03 02:19:10;;;;;;;42.00;27.50;;;;;;;;;;5021470;28;20383;-60
2023/11/03 02:21:36;;;;;;;55.50;31.08;;;;;;;;;;5019009;28;20037;-61
2023/11/03 02:24:04;;;;;;;46.83;28.73;;;;;;;;;;5027820;28;20030;-60
2023/11/03 02:26:30;;;;;;;47.95;30.42;;;;;;;;;;5024143;28;20022;-60
2023/11/03 02:28:56;;;;;;;43.75;27.70;;;;;;;;;;5029072;28;20098;-60
2023/11/03 02:31:22;;;;;;;48.53;28.83;;;;;;;;;;5031423;28;20513;-60
2023/11/03 02:33:48;;;;;;;40.05;24.10;;;;;;;;;;5026473;28;20072;-60
2023/11/03 02:36:15;;;;;;;39.03;23.73;;;;;;;;;;5028983;28;20021;-60
2023/11/03 02:38:41;;;;;;;47.88;25.83;;;;;;;;;;5032104;28;20426;-61
2023/11/03 02:41:07;;;;;;;40.92;22.98;;;;;;;;;;5027795;28;20045;-60
2023/11/03 02:43:34;;;;;;;25.48;16.85;;;;;;;;;;5029976;28;20017;-60
2023/11/03 02:46:00;;;;;;;22.60;15.70;;;;;;;;;;5017556;28;20021;-61
2023/11/03 02:48:26;;;;;;;19.05;14.30;;;;;;;;;;5025503;28;20101;-60
2023/11/03 02:50:52;;;;;;;16.77;13.30;;;;;;;;;;5031007;28;20356;-60
2023/11/03 02:53:18;;;;;;;19.52;14.55;;;;;;;;;;5014732;28;20034;-60
2023/11/03 02:55:44;;;;;;;21.42;15.50;;;;;;;;;;5025326;28;20021;-60
2023/11/03 02:58:10;;;;;;;27.10;16.35;;;;;;;;;;5031862;28;20029;-61
2023/11/03 03:00:36;;;;;;;20.50;16.00;;;;;;;;;;5023463;28;20049;-61
2023/11/03 03:03:05;;;;;;;21.75;15.30;;;;;;;;;;5022912;28;20117;-60
2023/11/03 03:05:31;;;;;;;26.33;16.42;;;;;;;;;;5012103;28;20244;-60
2023/11/03 03:07:57;;;;;;;20.80;15.20;;;;;;;;;;5028567;28;20175;-60
2023/11/03 03:10:23;;;;;;;18.42;13.90;;;;;;;;;;5026439;28;20025;-61
2023/11/03 03:12:49;;;;;;;18.10;13.00;;;;;;;;;;5028448;28;20017;-60
2023/11/03 03:15:15;;;;;;;25.27;15.63;;;;;;;;;;5028815;28;20026;-60
2023/11/03 03:17:41;;;;;;;17.95;13.93;;;;;;;;;;5027394;28;20034;-60
2023/11/03 03:20:07;;;;;;;18.73;14.13;;;;;;;;;;5028504;28;20114;-60
2023/11/03 03:22:33;;;;;;;26.13;15.77;;;;;;;;;;5028004;28;20021;-60
2023/11/03 03:24:59;;;;;;;19.48;13.55;;;;;;;;;;5024812;28;20096;-60
2023/11/03 03:27:25;;;;;;;27.30;15.50;;;;;;;;;;5024146;28;20041;-60
2023/11/03 03:29:51;;;;;;;30.85;15.25;;;;;;;;;;5030384;28;20119;-61
2023/11/03 03:32:17;;;;;;;20.23;14.70;;;;;;;;;;5011708;28;20521;-60
2023/11/03 03:34:43;;;;;;;23.40;15.88;;;;;;;;;;5019957;28;20076;-60
2023/11/03 03:37:12;;;;;;;24.40;16.55;;;;;;;;;;5030880;28;20022;-60
2023/11/03 03:39:38;;;;;;;31.73;18.48;;;;;;;;;;5029316;28;20522;-60
2023/11/03 03:42:04;;;;;;;27.98;17.15;;;;;;;;;;5016055;28;20505;-60
2023/11/03 03:44:30;;;;;;;19.52;14.13;;;28.90;99.90;;;;;;5021533;28;20393;-60
2023/11/03 03:46:55;;;;;;;15.13;12.52;;;29.10;99.90;;;;;;5028735;28;20029;-60
2023/11/03 03:49:21;;;;;;;14.43;11.27;;;28.80;99.90;;;;;;5028024;28;20029;-60
2023/11/03 03:51:47;;;;;;;17.15;12.05;;;29.00;99.90;;;;;;5027220;28;20051;-60
2023/11/03 03:54:13;;;;;;;14.80;10.68;;;28.80;99.90;;;;;;5021374;28;20047;-60
2023/11/03 03:56:39;;;;;;;15.10;10.27;;;28.80;99.90;;;;;;5029810;28;20026;-60
2023/11/03 03:59:05;;;;;;;10.35;8.63;;;;;;;;;;5029284;28;20570;-60
2023/11/03 04:01:31;;;;;;;23.08;11.70;;;;;;;;;;5030628;28;20325;-60
2023/11/03 04:03:56;;;;;;;7.75;6.95;;;28.90;99.90;;;;;;5023744;28;20026;-60
2023/11/03 04:06:22;;;;;;;17.73;9.40;;;29.40;99.90;;;;;;5023700;28;20045;-60
2023/11/03 04:08:47;;;;;;;14.77;8.90;;;29.30;99.90;;;;;;5023042;28;20025;-60
2023/11/03 04:11:13;;;;;;;7.55;6.05;;;29.30;99.90;;;;;;5027390;28;20502;-60
2023/11/03 04:13:39;;;;;;;11.80;5.70;;;29.50;99.90;;;;;;5028144;28;20013;-60
2023/11/03 04:16:06;;;;;;;12.05;8.30;;;29.50;99.90;;;;;;5018159;28;20033;-60
2023/11/03 04:18:33;;;;;;;12.93;8.20;;;29.40;99.90;;;;;;5025852;28;20048;-60
2023/11/03 04:20:58;;;;;;;7.93;7.13;;;29.70;99.90;;;;;;5022797;28;20111;-60
2023/11/03 04:23:24;;;;;;;10.77;7.70;;;29.50;99.90;;;;;;5018896;28;20456;-60
2023/11/03 04:25:53;;;;;;;8.50;7.60;;;29.70;99.90;;;;;;5017883;28;20033;-60
2023/11/03 04:28:19;;;;;;;8.27;7.47;;;29.50;99.90;;;;;;5016927;28;20113;-60
2023/11/03 04:30:45;;;;;;;12.82;9.73;;;29.40;99.90;;;;;;5012067;28;20030;-60
2023/11/03 04:33:12;;;;;;;12.50;9.70;;;29.60;99.90;;;;;;5020692;28;20519;-60
2023/11/03 04:35:38;;;;;;;10.18;8.82;;;29.50;99.90;;;;;;5022224;28;20030;-60
2023/11/03 04:38:03;;;;;;;13.07;9.90;;;29.70;99.90;;;;;;5024014;28;20064;-60
2023/11/03 04:40:29;;;;;;;16.75;13.43;;;;;;;;;;5025915;28;20057;-60
2023/11/03 04:42:55;;;;;;;26.67;13.23;;;;;;;;;;5029029;28;20034;-60
2023/11/03 04:45:21;;;;;;;17.80;12.52;;;;;;;;;;5018558;28;20132;-60
2023/11/03 04:47:49;;;;;;;16.75;12.52;;;;;;;;;;5019047;28;20036;-60
2023/11/03 04:50:16;;;;;;;20.35;12.85;;;;;;;;;;5026947;28;20156;-60
2023/11/03 04:52:42;;;;;;;17.23;13.27;;;;;;;;;;5028534;28;20025;-60
2023/11/03 04:55:08;;;;;;;14.90;9.95;;;;;;;;;;5064334;28;20048;-60
2023/11/03 04:57:35;;;;;;;12.50;9.52;;;29.60;99.90;;;;;;5033867;28;20022;-60
2023/11/03 05:00:02;;;;;;;11.27;7.22;;;28.80;99.90;;;;;;5032876;28;20321;-60
2023/11/03 05:02:29;;;;;;;9.05;5.47;;;28.50;99.90;;;;;;5028171;28;20017;-60
2023/11/03 05:04:55;;;;;;;0.00;0.00;;;28.60;99.90;;;;;;5030151;28;20375;-60
2023/11/03 05:07:22;;;;;;;0.20;0.17;;;28.70;99.90;;;;;;5031082;28;20034;-60
2023/11/03 05:09:47;;;;;;;0.13;0.13;;;28.50;99.90;;;;;;5026119;28;20033;-60
2023/11/03 05:12:13;;;;;;;0.00;0.00;;;28.60;99.90;;;;;;5024590;28;20040;-60
2023/11/03 05:14:39;;;;;;;0.10;0.10;;;28.50;99.90;;;;;;5031326;28;20025;-60
2023/11/03 05:17:07;;;;;;;0.00;0.00;;;28.40;99.90;;;;;;5024152;28;20063;-60
2023/11/03 05:19:35;;;;;;;0.00;0.00;;;28.60;99.90;;;;;;5031868;28;20013;-60
2023/11/03 05:22:01;;;;;;;0.00;0.00;;;28.30;99.90;;;;;;5032296;28;20562;-60
2023/11/03 05:24:27;;;;;;;0.00;0.00;;;28.20;99.90;;;;;;5028050;28;20492;-60
2023/11/03 05:26:53;;;;;;;0.20;0.20;;;28.20;99.90;;;;;;5031929;28;20030;-60
2023/11/03 05:29:22;;;;;;;0.00;0.00;;;28.20;99.90;;;;;;5031773;28;20497;-60
2023/11/03 05:31:52;;;;;;;0.00;0.00;;;28.10;99.90;;;;;;5029632;28;20108;-61
2023/11/03 05:34:18;;;;;;;0.00;0.00;;;28.20;99.90;;;;;;5025287;28;20355;-60
2023/11/03 05:36:45;;;;;;;0.00;0.00;;;28.20;99.90;;;;;;5032664;28;20101;-60
2023/11/03 05:39:12;;;;;;;0.00;0.00;;;28.10;99.90;;;;;;5024920;28;20519;-60
2023/11/03 05:41:38;;;;;;;0.00;0.00;;;28.10;99.90;;;;;;5031085;28;20041;-60
2023/11/03 05:44:04;;;;;;;0.00;0.00;;;28.00;99.90;;;;;;5018391;28;20045;-60
2023/11/03 05:46:30;;;;;;;0.10;0.10;;;28.00;99.90;;;;;;5024548;28;20395;-60
2023/11/03 05:48:56;;;;;;;0.00;0.00;;;27.90;99.90;;;;;;5024197;28;20022;-60
2023/11/03 05:51:22;;;;;;;0.00;0.00;;;27.90;99.90;;;;;;5029131;28;20028;-60
2023/11/03 05:53:48;;;;;;;0.00;0.00;;;27.90;99.90;;;;;;5028954;28;20022;-60
2023/11/03 05:56:15;;;;;;;0.00;0.00;;;;;;;;;;5021052;28;20387;-60
2023/11/03 05:58:41;;;;;;;0.00;0.00;;;;;;;;;;5027634;28;20491;-60
2023/11/03 06:01:07;;;;;;;0.00;0.00;;;27.90;99.90;;;;;;5021812;28;20070;-60
2023/11/03 06:03:36;;;;;;;1.27;0.22;;;27.70;99.90;;;;;;5022904;28;20030;-60
2023/11/03 06:06:02;;;;;;;0.00;0.00;;;27.60;99.90;;;;;;5030044;28;20049;-60
2023/11/03 06:08:28;;;;;;;0.00;0.00;;;27.60;99.90;;;;;;5022194;28;20531;-60
2023/11/03 06:10:54;;;;;;;0.00;0.00;;;27.70;99.90;;;;;;5029234;28;20128;-61
2023/11/03 06:13:20;;;;;;;0.00;0.00;;;27.40;99.90;;;;;;5032972;28;20080;-60
2023/11/03 06:15:46;;;;;;;0.00;0.00;;;27.30;99.90;;;;;;5017804;28;20021;-60
2023/11/03 06:18:12;;;;;;;0.00;0.00;;;;;;;;;;5019522;28;20033;-61
2023/11/03 06:20:38;;;;;;;0.00;0.00;;;;;;;;;;5023877;28;20077;-61
2023/11/03 06:23:04;;;;;;;0.00;0.00;;;;;;;;;;5027827;28;20040;-61
2023/11/03 06:25:30;;;;;;;0.00;0.00;;;;;;;;;;5032149;28;20025;-61
2023/11/03 06:27:56;;;;;;;0.00;0.00;;;;;;;;;;5024555;28;20029;-61
2023/11/03 06:30:22;;;;;;;0.00;0.00;;;;;;;;;;5028203;28;20387;-61
2023/11/03 06:32:50;;;;;;;0.30;0.30;;;;;;;;;;5025746;28;20097;-61
2023/11/03 06:35:16;;;;;;;0.00;0.00;;;;;;;;;;5024697;28;20030;-61
2023/11/03 06:37:42;;;;;;;0.00;0.00;;;;;;;;;;5022097;28;20458;-61
2023/11/03 06:40:10;;;;;;;0.00;0.00;;;;;;;;;;5028666;28;20100;-61
2023/11/03 06:42:38;;;;;;;0.00;0.00;;;;;;;;;;5027052;28;20467;-61
2023/11/03 06:45:05;;;;;;;0.00;0.00;;;;;;;;;;5027832;28;20521;-60
2023/11/03 06:47:32;;;;;;;0.00;0.00;;;;;;;;;;5033126;28;20025;-61
2023/11/03 06:49:58;;;;;;;0.00;0.00;;;;;;;;;;5033145;28;20021;-61
2023/11/03 06:52:24;;;;;;;0.00;0.00;;;;;;;;;;5031257;28;20025;-61
2023/11/03 06:54:50;;;;;;;0.00;0.00;;;;;;;;;;5027564;28;20072;-61
2023/11/03 06:57:16;;;;;;;0.00;0.00;;;27.30;99.90;;;;;;5023713;28;20443;-60
2023/11/03 06:59:41;;;;;;;1.30;1.30;;;27.50;99.90;;;;;;5021433;28;20083;-61
2023/11/03 07:02:08;;;;;;;0.00;0.00;;;27.50;99.90;;;;;;5026074;28;20022;-61
2023/11/03 07:04:35;;;;;;;0.00;0.00;;;27.40;99.90;;;;;;5026224;28;20023;-61
2023/11/03 07:07:01;;;;;;;0.00;0.00;;;27.40;99.90;;;;;;5032500;28;20021;-61
2023/11/03 07:09:27;;;;;;;0.00;0.00;;;27.40;99.90;;;;;;5026537;28;20029;-61
2023/11/03 07:11:54;;;;;;;0.00;0.00;;;27.50;99.90;;;;;;5028080;28;20026;-66
2023/11/03 07:14:20;;;;;;;0.00;0.00;;;27.50;99.90;;;;;;5048801;28;20026;-65
2023/11/03 07:16:47;;;;;;;0.00;0.00;;;27.30;99.90;;;;;;5024331;28;20032;-64
2023/11/03 07:19:13;;;;;;;0.00;0.00;;;27.20;99.90;;;;;;5027753;28;20103;-64
2023/11/03 07:21:39;;;;;;;0.50;0.47;;;27.10;99.90;;;;;;5027302;28;20079;-64
2023/11/03 07:24:05;;;;;;;0.00;0.00;;;26.90;99.90;;;;;;5029532;28;20345;-65
2023/11/03 07:26:31;;;;;;;0.00;0.00;;;27.00;99.90;;;;;;5028623;28;20018;-65
2023/11/03 07:28:56;;;;;;;0.00;0.00;;;27.10;99.90;;;;;;5026252;28;20479;-65
2023/11/03 07:31:22;;;;;;;0.00;0.00;;;27.10;99.90;;;;;;5025404;28;20021;-65
2023/11/03 07:33:48;;;;;;;0.00;0.00;;;27.10;99.90;;;;;;5031268;28;20036;-65
2023/11/03 07:36:13;;;;;;;0.00;0.00;;;27.00;99.90;;;;;;5027620;28;20403;-65
2023/11/03 07:38:39;;;;;;;0.00;0.00;;;27.00;99.90;;;;;;5023602;28;20113;-64
2023/11/03 07:41:08;;;;;;;0.00;0.00;;;26.90;99.90;;;;;;5028483;28;20076;-64
2023/11/03 07:43:36;;;;;;;0.00;0.00;;;26.90;99.90;;;;;;5022090;28;20100;-64
2023/11/03 07:46:03;;;;;;;0.00;0.00;;;26.90;99.90;;;;;;5030735;28;20037;-64
2023/11/03 07:48:28;;;;;;;0.00;0.00;;;26.80;99.90;;;;;;5030093;28;20125;-64
2023/11/03 07:50:54;;;;;;;0.00;0.00;;;26.80;99.90;;;;;;5018502;28;20022;-59
2023/11/03 07:53:20;;;;;;;0.00;0.00;;;26.90;99.90;;;;;;5032216;28;20340;-61
2023/11/03 07:55:45;;;;;;;0.00;0.00;;;26.90;99.90;;;;;;5030681;28;20065;-61
2023/11/03 07:58:11;;;;;;;0.00;0.00;;;26.90;99.90;;;;;;5031662;28;20025;-61
2023/11/03 08:00:36;;;;;;;0.00;0.00;;;26.80;99.90;;;;;;5031131;28;20143;-61
2023/11/03 08:03:05;;;;;;;0.00;0.00;;;26.90;99.90;;;;;;5031907;28;20124;-61
2023/11/03 08:05:31;;;;;;;0.00;0.00;;;26.90;99.90;;;;;;5032068;28;20132;-61
2023/11/03 08:07:57;;;;;;;0.00;0.00;;;26.80;99.90;;;;;;5021211;28;20045;-61
2023/11/03 08:10:23;;;;;;;0.00;0.00;;;26.80;99.90;;;;;;5024197;28;20024;-61
2023/11/03 08:12:48;;;;;;;0.00;0.00;;;26.90;99.90;;;;;;5020912;28;20111;-61
2023/11/03 08:15:14;;;;;;;0.00;0.00;;;26.90;99.90;;;;;;5031781;28;20021;-59
2023/11/03 08:17:40;;;;;;;0.00;0.00;;;26.90;99.90;;;;;;5031843;28;20036;-58
2023/11/03 08:20:06;;;;;;;0.00;0.00;;;27.00;99.90;;;;;;5031825;28;20499;-61
2023/11/03 08:22:32;;;;;;;0.00;0.00;;;27.00;99.90;;;;;;5030320;28;20118;-61
2023/11/03 08:24:58;;;;;;;0.00;0.00;;;27.00;99.90;;;;;;5030546;28;20421;-61
2023/11/03 08:27:24;;;;;;;0.00;0.00;;;27.00;99.90;;;;;;5031984;28;20056;-60
2023/11/03 08:29:50;;;;;;;0.00;0.00;;;27.00;99.90;;;;;;5023898;28;20528;-60
2023/11/03 08:32:16;;;;;;;0.00;0.00;;;27.00;99.90;;;;;;5029161;28;20463;-61
2023/11/03 08:34:42;;;;;;;0.00;0.00;;;27.00;99.90;;;;;;5033452;28;20153;-68
2023/11/03 08:37:07;;;;;;;0.00;0.00;;;27.10;99.90;;;;;;5029254;28;20029;-66
2023/11/03 08:39:33;;;;;;;0.00;0.00;;;27.00;99.90;;;;;;5030864;28;20054;-65
2023/11/03 08:42:02;;;;;;;0.00;0.00;;;27.00;99.90;;;;;;5022066;28;20046;-62
2023/11/03 08:44:28;;;;;;;0.00;0.00;;;27.10;99.90;;;;;;5033549;28;20030;-64
2023/11/03 08:46:54;;;;;;;0.00;0.00;;;27.00;99.90;;;;;;5024719;28;20041;-58
2023/11/03 08:49:20;;;;;;;0.00;0.00;;;27.10;99.90;;;;;;5029097;28;20037;-62
2023/11/03 08:51:45;;;;;;;0.00;0.00;;;27.20;99.90;;;;;;5034058;28;20068;-59
2023/11/03 08:54:12;;;;;;;0.00;0.00;;;27.20;99.90;;;;;;5023615;28;20048;-64
2023/11/03 08:56:39;;;;;;;0.00;0.00;;;27.20;99.90;;;;;;5033473;28;20623;-63
2023/11/03 08:59:04;;;;;;;0.00;0.00;;;27.20;99.90;;;;;;5026378;28;20036;-64
2023/11/03 09:01:30;;;;;;;0.00;0.00;;;27.30;99.90;;;;;;5028259;28;20113;-60
2023/11/03 09:03:56;;;;;;;0.00;0.00;;;27.50;99.90;;;;;;5030318;28;20079;-63
2023/11/03 09:06:22;;;;;;;0.00;0.00;;;27.60;99.90;;;;;;5030845;28;20116;-65
2023/11/03 09:08:48;;;;;;;0.00;0.00;;;27.70;99.90;;;;;;5025793;28;20451;-67
2023/11/03 09:11:14;;;;;;;0.00;0.00;;;27.80;99.90;;;;;;5011329;28;20816;-66
2023/11/03 09:13:53;;;;;;;0.00;0.00;;;27.80;99.90;;;;;;5027076;28;20037;-64
2023/11/03 09:16:20;;;;;;;0.00;0.00;;;27.90;99.90;;;;;;5029145;28;20363;-62
2023/11/03 09:18:46;;;;;;;0.00;0.00;;;27.90;99.90;;;;;;5028404;28;20033;-60
2023/11/03 09:21:13;;;;;;;0.00;0.00;;;28.00;99.90;;;;;;5022022;28;20390;-66
2023/11/03 09:23:38;;;;;;;0.00;0.00;;;28.10;99.90;;;;;;5026601;28;20041;-61
2023/11/03 09:26:05;;;;;;;0.00;0.00;;;;;;;;;;5029194;28;20067;-64
2023/11/03 09:28:31;;;;;;;0.00;0.00;;;;;;;;;;5025133;28;20108;-62
2023/11/03 09:30:57;;;;;;;0.00;0.00;;;;;;;;;;5021630;28;20029;-61
2023/11/03 09:33:23;;;;;;;0.00;0.00;;;;;;;;;;5023812;28;20112;-60
2023/11/03 09:35:49;;;;;;;0.00;0.00;;;;;;;;;;5027632;28;20424;-69
2023/11/03 09:38:19;;;;;;;0.00;0.00;;;;;;;;;;5033643;28;20025;-65
2023/11/03 09:40:45;;;;;;;0.00;0.00;;;;;;;;;;5024057;28;20041;-65
2023/11/03 09:43:11;;;;;;;0.00;0.00;;;;;;;;;;5027703;28;20033;-60
2023/11/03 09:45:38;;;;;;;0.00;0.00;;;;;;;;;;5030518;28;20359;-61
2023/11/03 09:48:05;;;;;;;0.00;0.00;;;;;;;;;;5022042;28;20017;-60
2023/11/03 09:50:31;;;;;;;0.00;0.00;;;;;;;;;;5028549;28;20024;-60
2023/11/03 09:52:59;;;;;;;0.00;0.00;;;;;;;;;;5030007;28;20030;-61
2023/11/03 09:55:26;;;;;;;0.00;0.00;;;;;;;;;;5028637;28;20034;-59
2023/11/03 09:57:56;;;;;;;0.00;0.00;;;;;;;;;;5019780;28;20115;-65
2023/11/03 10:00:22;;;;;;;0.10;0.10;;;;;;;;;;5032803;28;20041;-66
2023/11/03 10:02:48;;;;;;;0.00;0.00;;;;;;;;;;5031472;28;20029;-60
2023/11/03 10:05:16;;;;;;;0.00;0.00;;;;;;;;;;5018731;28;20336;-60
2023/11/03 10:08:00;;;;;;;0.00;0.00;;;;;;;;;;5032704;28;20491;-59
2023/11/03 10:10:26;;;;;;;0.00;0.00;;;;;;;;;;5018789;28;20026;-60
2023/11/03 10:12:52;;;;;;;0.20;0.20;;;;;;;;;;5026405;28;20033;-63
2023/11/03 10:15:18;;;;;;;0.00;0.00;;;;;;;;;;5029350;28;20033;-56
2023/11/03 10:17:45;;;;;;;0.00;0.00;;;;;;;;;;5024927;28;20034;-75
2023/11/03 10:20:12;;;;;;;0.00;0.00;;;;;;;;;;5027939;28;20132;-70
2023/11/03 10:22:41;;;;;;;0.00;0.00;;;;;;;;;;5030822;28;20510;-59
2023/11/03 10:25:08;;;;;;;0.00;0.00;;;;;;;;;;5031094;28;20052;-51
2023/11/03 10:27:35;;;;;;;0.20;0.20;;;;;;;;;;5032486;28;20109;-62
2023/11/03 10:30:05;;;;;;;0.00;0.00;;;;;;;;;;5024921;28;20026;-61
2023/11/03 10:32:32;;;;;;;0.00;0.00;;;;;;;;;;5033372;28;20087;-68
2023/11/03 10:34:58;;;;;;;0.10;0.10;;;;;;;;;;5028379;28;20021;-69
2023/11/03 10:37:25;;;;;;;0.00;0.00;;;;;;;;;;5025302;28;20059;-61
2023/11/03 10:39:51;;;;;;;0.00;0.00;;;;;;;;;;5025453;28;20499;-59
2023/11/03 10:42:23;;;;;;;0.00;0.00;;;;;;;;;;5023681;28;20029;-60
2023/11/03 10:44:50;;;;;;;0.00;0.00;;;;;;;;;;5032256;28;20128;-63
2023/11/03 10:47:20;;;;;;;0.00;0.00;;;;;;;;;;5028103;28;20035;-62
2023/11/03 10:49:48;;;;;;;0.00;0.00;;;;;;;;;;5027613;28;20180;-62
2023/11/03 10:52:15;;;;;;;0.35;0.20;;;;;;;;;;5018047;28;20030;-62
2023/11/03 10:54:47;;;;;;;0.00;0.00;;;;;;;;;;5031889;28;20033;-62
2023/11/03 10:57:14;;;;;;;0.00;0.00;;;;;;;;;;5025042;28;20144;-61
2023/11/03 10:59:43;;;;;;;0.00;0.00;;;;;;;;;;5020196;28;20068;-61
2023/11/03 11:02:19;;;;;;;0.57;0.22;;;;;;;;;;5025564;28;20041;-60
2023/11/03 11:04:55;;;;;;;0.00;0.00;;;;;;;;;;5030323;28;20022;-61
2023/11/03 11:07:22;;;;;;;0.00;0.00;;;;;;;;;;5017987;28;20165;-61
2023/11/03 11:09:49;;;;;;;0.82;0.80;;;;;;;;;;5030577;28;20422;-61
2023/11/03 11:12:15;;;;;;;0.00;0.00;;;;;;;;;;5030902;28;20021;-61
2023/11/03 11:14:42;;;;;;;0.00;0.00;;;;;;;;;;5022878;28;20479;-67
2023/11/03 11:17:09;;;;;;;0.00;0.00;;;;;;;;;;5020346;28;20064;-70
2023/11/03 11:19:54;;;;;;;0.00;0.00;;;;;;;;;;5028364;28;20047;-68
2023/11/03 11:22:23;;;;;;;0.00;0.00;;;;;;;;;;5032729;28;20041;-68
2023/11/03 11:24:53;;;;;;;0.00;0.00;;;;;;;;;;5033041;28;20041;-68
2023/11/03 11:27:20;;;;;;;0.00;0.00;;;;;;;;;;5030005;28;20025;-68
2023/11/03 11:29:50;;;;;;;0.00;0.00;;;;;;;;;;5028092;28;20066;-68
2023/11/03 11:32:17;;;;;;;0.00;0.00;;;;;;;;;;5031387;28;20108;-64
2023/11/03 11:34:44;;;;;;;0.00;0.00;;;;;;;;;;5031365;28;20029;-65
2023/11/03 11:37:31;;;;;;;0.00;0.00;;;;;;;;;;5029190;28;20021;-65
2023/11/03 11:39:57;;;;;;;0.00;0.00;;;;;;;;;;5028391;28;20085;-65
2023/11/03 11:42:28;;;;;;;0.00;0.00;;;;;;;;;;5031763;28;20400;-65
2023/11/03 11:44:54;;;;;;;0.00;0.00;;;;;;;;;;5031610;28;20439;-65
2023/11/03 11:47:24;;;;;;;0.00;0.00;;;;;;;;;;5031612;28;20108;-65
2023/11/03 11:49:52;;;;;;;0.00;0.00;;;;;;;;;;5031895;28;20021;-65
2023/11/03 11:52:21;;;;;;;0.05;0.05;;;;;;;;;;5022707;28;20105;-64
2023/11/03 11:54:47;;;;;;;0.00;0.00;;;;;;;;;;5027036;28;20056;-64
2023/11/03 11:57:13;;;;;;;0.00;0.00;;;;;;;;;;5030649;28;20021;-64
2023/11/03 11:59:43;;;;;;;0.00;0.00;;;;;;;;;;5032141;28;20033;-65
2023/11/03 12:02:09;;;;;;;0.15;0.15;;;;;;;;;;5031479;28;20025;-64
2023/11/03 12:04:36;;;;;;;0.00;0.00;;;;;;;;;;5031499;28;20044;-64
2023/11/03 12:07:03;;;;;;;0.00;0.00;;;;;;;;;;5031878;28;20032;-64
2023/11/03 12:09:34;;;;;;;0.00;0.00;;;;;;;;;;5031261;28;20040;-64
2023/11/03 12:12:01;;;;;;;0.00;0.00;;;;;;;;;;5031757;28;20056;-65
2023/11/03 12:14:27;;;;;;;0.00;0.00;;;;;;;;;;5030118;28;20013;-64
2023/11/03 12:16:53;;;;;;;0.00;0.00;;;;;;;;;;5031896;28;20152;-64
2023/11/03 12:19:19;;;;;;;0.00;0.00;;;;;;;;;;5031985;28;20472;-64
2023/11/03 12:21:50;;;;;;;0.00;0.00;;;;;;;;;;5031473;28;20112;-64
2023/11/03 12:24:16;;;;;;;0.00;0.00;;;;;;;;;;5030408;28;20101;-64
2023/11/03 12:26:42;;;;;;;0.00;0.00;;;;;;;;;;5031558;28;20036;-64
2023/11/03 12:29:30;;;;;;;0.00;0.00;;;;;;;;;;5031137;28;20018;-64
2023/11/03 12:32:00;;;;;;;0.00;0.00;;;;;;;;;;5031840;28;20565;-64
2023/11/03 12:34:26;;;;;;;0.00;0.00;;;;;;;;;;5031320;28;20021;-64
2023/11/03 12:36:52;;;;;;;0.00;0.00;;;;;;;;;;5031600;28;20044;-64
2023/11/03 12:39:18;;;;;;;0.00;0.00;;;;;;;;;;5031018;28;20049;-64
2023/11/03 12:41:45;;;;;;;0.00;0.00;;;;;;;;;;5031602;28;20104;-64
2023/11/03 12:44:11;;;;;;;0.00;0.00;;;;;;;;;;5031593;28;20018;-64
2023/11/03 12:46:46;;;;;;;0.00;0.00;;;;;;;;;;5031487;28;20083;-64
2023/11/03 12:49:13;;;;;;;0.00;0.00;;;;;;;;;;5018158;28;20108;-64
2023/11/03 12:51:42;;;;;;;0.00;0.00;;;;;;;;;;5031013;28;20013;-64
2023/11/03 12:54:12;;;;;;;1.45;1.00;;;;;;;;;;5031751;28;20029;-64
2023/11/03 12:56:43;;;;;;;0.00;0.00;;;;;;;;;;5031706;28;20029;-64
2023/11/03 12:59:09;;;;;;;0.00;0.00;;;;;;;;;;5031140;28;20541;-64
2023/11/03 13:01:35;;;;;;;2.47;0.38;;;;;;;;;;5031362;28;20029;-64
2023/11/03 13:04:01;;;;;;;0.00;0.00;;;;;;;;;;5031421;28;20109;-64
2023/11/03 13:06:29;;;;;;;0.00;0.00;;;;;;;;;;5029461;28;20053;-64
2023/11/03 13:08:56;;;;;;;0.00;0.00;;;;;;;;;;5030955;28;20092;-64
2023/11/03 13:11:22;;;;;;;0.00;0.00;;;;;;;;;;5031055;28;20128;-64
2023/11/03 13:13:48;;;;;;;0.17;0.17;;;;;;;;;;5030292;28;20052;-64
2023/11/03 13:16:14;;;;;;;0.00;0.00;;;;;;;;;;5032661;28;20021;-64
2023/11/03 13:18:42;;;;;;;0.00;0.00;;;;;;;;;;5034750;28;20032;-64
2023/11/03 13:21:10;;;;;;;0.00;0.00;;;;;;;;;;5033401;28;20195;-64
2023/11/03 13:23:36;;;;;;;0.00;0.00;;;;;;;;;;5034468;28;20021;-64
2023/11/03 13:26:02;;;;;;;0.00;0.00;;;;;;;;;;5034788;28;20518;-64
2023/11/03 13:28:28;;;;;;;0.00;0.00;;;;;;;;;;5033278;28;20025;-64
2023/11/03 13:30:57;;;;;;;0.00;0.00;;;;;;;;;;5034631;28;20033;-64
2023/11/03 13:33:23;;;;;;;0.00;0.00;;;;;;;;;;5032819;28;20104;-64
2023/11/03 13:35:49;;;;;;;0.00;0.00;;;;;;;;;;5034565;28;20116;-64
2023/11/03 13:38:15;;;;;;;0.00;0.00;;;;;;;;;;5034436;28;20093;-64
2023/11/03 13:40:43;;;;;;;0.00;0.00;;;;;;;;;;5034389;28;20049;-64
2023/11/03 13:43:09;;;;;;;0.00;0.00;;;;;;;;;;5034224;28;20108;-64
2023/11/03 13:45:35;;;;;;;0.00;0.00;;;;;;;;;;5034431;28;20034;-64
2023/11/03 13:48:01;;;;;;;0.00;0.00;;;;;;;;;;5034187;28;20022;-64
2023/11/03 13:50:27;;;;;;;0.00;0.00;;;;;;;;;;5034211;28;20092;-64